Time,TemperatureF,DewpointF,PressureIn,WindDirection,WindDirectionDegrees,WindSpeedMPH,WindSpeedGustMPH,Humidity,HourlyPrecipIn,Conditions,Clouds,dailyrainin,SoftwareType,DateUTC
2013-12-05 00:00:00,39.5,38.2,29.43,West,259,11.0,11.0,95,0.00,,,0.76,Wunderground v.1.15,2013-12-05 06:00:00,
2013-12-05 00:15:00,38.7,37.4,29.43,WSW,257,13.0,14.0,95,0.00,,,0.00,Wunderground v.1.15,2013-12-05 06:15:00,
2013-12-05 00:20:00,38.4,37.1,29.44,WSW,244,11.0,15.0,95,0.00,,,0.00,Wunderground v.1.15,2013-12-05 06:20:00,
2013-12-05 00:25:00,38.2,36.9,29.44,West,277,10.0,15.0,95,0.00,,,0.00,Wunderground v.1.15,2013-12-05 06:25:00,
2013-12-05 00:30:00,37.9,36.6,29.45,WNW,294,11.0,11.0,95,0.00,,,0.00,Wunderground v.1.15,2013-12-05 06:30:00,
2013-12-05 00:35:00,37.7,36.4,29.45,SW,230,11.0,11.0,95,0.00,,,0.00,Wunderground v.1.15,2013-12-05 06:35:00,
2013-12-05 00:40:00,37.5,35.9,29.45,West,268,12.0,13.0,94,0.00,,,0.00,Wunderground v.1.15,2013-12-05 06:40:00,
2013-12-05 00:45:00,37.3,35.7,29.46,West,267,12.0,13.0,94,0.00,,,0.00,Wunderground v.1.15,2013-12-05 06:45:00,
2013-12-05 00:50:00,37.1,35.5,29.46,SSW,211,12.0,12.0,94,0.00,,,0.00,Wunderground v.1.15,2013-12-05 06:50:00,
2013-12-05 00:55:00,37.0,35.4,29.46,SW,223,11.0,16.0,94,0.00,,,0.00,Wunderground v.1.15,2013-12-05 06:55:00,
2013-12-05 01:00:00,37.0,35.4,29.46,WSW,257,11.0,13.0,94,0.00,,,0.00,Wunderground v.1.15,2013-12-05 07:00:00,
2013-12-05 01:05:00,36.9,35.3,29.47,WSW,245,11.0,13.0,94,0.00,,,0.00,Wunderground v.1.15,2013-12-05 07:05:00,
2013-12-05 01:10:00,36.8,35.2,29.47,WSW,244,11.0,11.0,94,0.00,,,0.00,Wunderground v.1.15,2013-12-05 07:10:00,
2013-12-05 01:20:00,36.5,34.7,29.46,WSW,252,12.0,12.0,93,0.00,,,0.00,Wunderground v.1.15,2013-12-05 07:20:00,
2013-12-05 01:25:00,36.5,34.9,29.46,West,264,11.0,12.0,94,0.00,,,0.00,Wunderground v.1.15,2013-12-05 07:25:00,
2013-12-05 01:30:00,36.3,34.7,29.47,WSW,255,9.0,9.0,94,0.00,,,0.00,Wunderground v.1.15,2013-12-05 07:30:00,
2013-12-05 01:40:00,36.1,34.5,29.48,West,261,10.0,11.0,94,0.00,,,0.00,Wunderground v.1.15,2013-12-05 07:40:00,
2013-12-05 01:45:00,36.0,34.4,29.48,West,265,11.0,13.0,94,0.00,,,0.00,Wunderground v.1.15,2013-12-05 07:45:00,
2013-12-05 01:50:00,35.8,34.2,29.49,WSW,258,11.0,11.0,94,0.00,,,0.00,Wunderground v.1.15,2013-12-05 07:50:00,
2013-12-05 01:55:00,35.7,34.1,29.49,WSW,240,12.0,12.0,94,0.00,,,0.00,Wunderground v.1.15,2013-12-05 07:55:00,
2013-12-05 02:00:00,35.5,33.9,29.49,SW,236,12.0,17.0,94,0.00,,,0.00,Wunderground v.1.15,2013-12-05 08:00:00,
2013-12-05 02:05:00,35.5,33.9,29.49,SW,234,10.0,17.0,94,0.00,,,0.00,Wunderground v.1.15,2013-12-05 08:05:00,
2013-12-05 02:10:00,35.3,33.5,29.49,West,273,10.0,10.0,93,0.00,,,0.00,Wunderground v.1.15,2013-12-05 08:10:00,
2013-12-05 02:15:00,35.3,33.5,29.50,West,264,10.0,10.0,93,0.00,,,0.00,Wunderground v.1.15,2013-12-05 08:15:00,
2013-12-05 02:20:00,35.2,33.4,29.51,WSW,242,9.0,9.0,93,0.00,,,0.00,Wunderground v.1.15,2013-12-05 08:20:00,
2013-12-05 02:25:00,35.1,33.3,29.51,SW,229,9.0,16.0,93,0.00,,,0.00,Wunderground v.1.15,2013-12-05 08:25:00,
2013-12-05 02:30:00,35.0,33.2,29.52,SW,226,9.0,11.0,93,0.00,,,0.00,Wunderground v.1.15,2013-12-05 08:30:00,
2013-12-05 02:35:00,34.9,33.1,29.52,WSW,253,10.0,11.0,93,0.00,,,0.00,Wunderground v.1.15,2013-12-05 08:35:00,
2013-12-05 02:40:00,34.7,32.9,29.53,WSW,257,10.0,10.0,93,0.00,,,0.00,Wunderground v.1.15,2013-12-05 08:40:00,
2013-12-05 02:50:00,34.4,32.3,29.51,WSW,246,9.0,9.0,92,0.00,,,0.00,Wunderground v.1.15,2013-12-05 08:50:00,
2013-12-05 02:55:00,34.2,32.1,29.52,West,273,10.0,13.0,92,0.00,,,0.00,Wunderground v.1.15,2013-12-05 08:55:00,
2013-12-05 03:00:00,34.1,31.7,29.53,West,263,12.0,12.0,91,0.00,,,0.00,Wunderground v.1.15,2013-12-05 09:00:00,
2013-12-05 03:05:00,34.0,31.6,29.53,SW,223,11.0,15.0,91,0.00,,,0.00,Wunderground v.1.15,2013-12-05 09:05:00,
2013-12-05 03:10:00,33.9,31.6,29.53,WSW,246,11.0,11.0,91,0.00,,,0.00,Wunderground v.1.15,2013-12-05 09:10:00,
2013-12-05 03:15:00,33.8,31.5,29.53,WSW,257,10.0,12.0,91,0.00,,,0.00,Wunderground v.1.15,2013-12-05 09:15:00,
2013-12-05 03:20:00,33.7,31.1,29.53,WSW,253,10.0,15.0,90,0.00,,,0.00,Wunderground v.1.15,2013-12-05 09:20:00,
2013-12-05 03:25:00,33.7,31.1,29.52,WSW,255,13.0,15.0,90,0.00,,,0.00,Wunderground v.1.15,2013-12-05 09:25:00,
2013-12-05 03:30:00,33.5,30.9,29.52,WSW,249,11.0,11.0,90,0.00,,,0.00,Wunderground v.1.15,2013-12-05 09:30:00,
2013-12-05 03:35:00,33.3,30.7,29.50,SW,215,8.0,11.0,90,0.00,,,0.00,Wunderground v.1.15,2013-12-05 09:35:00,
2013-12-05 03:40:00,33.2,30.6,29.52,West,268,9.0,10.0,90,0.00,,,0.00,Wunderground v.1.15,2013-12-05 09:40:00,
2013-12-05 03:45:00,33.2,30.3,29.54,WNW,282,10.0,17.0,89,0.00,,,0.00,Wunderground v.1.15,2013-12-05 09:45:00,
2013-12-05 03:50:00,33.1,29.9,29.53,WSW,240,11.0,11.0,88,0.00,,,0.00,Wunderground v.1.15,2013-12-05 09:50:00,
2013-12-05 03:55:00,32.9,29.7,29.53,West,265,11.0,14.0,88,0.00,,,0.00,Wunderground v.1.15,2013-12-05 09:55:00,
2013-12-05 04:00:00,32.9,29.5,29.54,WNW,286,11.0,11.0,87,0.00,,,0.00,Wunderground v.1.15,2013-12-05 10:00:00,
2013-12-05 04:05:00,32.8,29.4,29.55,WSW,255,12.0,12.0,87,0.00,,,0.00,Wunderground v.1.15,2013-12-05 10:05:00,
2013-12-05 04:10:00,32.7,29.0,29.56,West,272,12.0,16.0,86,0.00,,,0.00,Wunderground v.1.15,2013-12-05 10:10:00,
2013-12-05 04:20:00,32.5,28.8,29.56,WNW,286,13.0,13.0,86,0.00,,,0.00,Wunderground v.1.15,2013-12-05 10:20:00,
2013-12-05 04:25:00,32.4,28.7,29.57,WSW,257,10.0,13.0,86,0.00,,,0.00,Wunderground v.1.15,2013-12-05 10:25:00,
2013-12-05 04:30:00,32.4,28.7,29.57,WSW,241,10.0,10.0,86,0.00,,,0.00,Wunderground v.1.15,2013-12-05 10:30:00,
2013-12-05 04:35:00,32.4,28.7,29.58,West,276,9.0,10.0,86,0.00,,,0.00,Wunderground v.1.15,2013-12-05 10:35:00,
2013-12-05 04:40:00,32.4,28.7,29.58,West,267,7.0,7.0,86,0.00,,,0.00,Wunderground v.1.15,2013-12-05 10:40:00,
2013-12-05 04:45:00,32.3,28.6,29.57,WSW,258,6.0,7.0,86,0.00,,,0.00,Wunderground v.1.15,2013-12-05 10:45:00,
2013-12-05 04:55:00,32.3,28.9,29.58,WSW,257,6.0,9.0,87,0.00,,,0.00,Wunderground v.1.15,2013-12-05 10:55:00,
2013-12-05 05:00:00,32.2,28.8,29.56,WSW,244,6.0,6.0,87,0.00,,,0.00,Wunderground v.1.15,2013-12-05 11:00:00,
2013-12-05 05:05:00,32.0,28.6,29.58,SW,235,8.0,11.0,87,0.00,,,0.00,Wunderground v.1.15,2013-12-05 11:05:00,
2013-12-05 05:10:00,31.8,28.1,29.59,WSW,250,9.0,14.0,86,0.00,,,0.00,Wunderground v.1.15,2013-12-05 11:10:00,
2013-12-05 05:15:00,31.6,27.9,29.58,West,260,9.0,14.0,86,0.00,,,0.00,Wunderground v.1.15,2013-12-05 11:15:00,
2013-12-05 05:20:00,31.4,27.7,29.59,SSW,204,9.0,9.0,86,0.00,,,0.00,Wunderground v.1.15,2013-12-05 11:20:00,
2013-12-05 05:25:00,31.1,27.1,29.60,SW,232,9.0,9.0,85,0.00,,,0.00,Wunderground v.1.15,2013-12-05 11:25:00,
2013-12-05 05:35:00,30.8,26.5,29.59,WSW,247,10.0,10.0,84,0.00,,,0.00,Wunderground v.1.15,2013-12-05 11:35:00,
2013-12-05 05:40:00,30.6,26.3,29.59,SW,225,9.0,10.0,84,0.00,,,0.00,Wunderground v.1.15,2013-12-05 11:40:00,
2013-12-05 05:45:00,30.4,26.1,29.61,SW,233,10.0,10.0,84,0.00,,,0.00,Wunderground v.1.15,2013-12-05 11:45:00,
2013-12-05 05:50:00,30.2,25.9,29.62,WSW,240,10.0,17.0,84,0.00,,,0.00,Wunderground v.1.15,2013-12-05 11:50:00,
2013-12-05 05:55:00,29.9,25.4,29.63,West,278,11.0,17.0,83,0.00,,,0.00,Wunderground v.1.15,2013-12-05 11:55:00,
2013-12-05 06:05:00,29.5,25.0,29.62,WSW,248,13.0,16.0,83,0.00,,,0.00,Wunderground v.1.15,2013-12-05 12:05:00,
2013-12-05 06:10:00,29.3,24.5,29.62,WSW,250,12.0,12.0,82,0.00,,,0.00,Wunderground v.1.15,2013-12-05 12:10:00,
2013-12-05 06:15:00,29.1,24.6,29.62,WSW,252,9.0,12.0,83,0.00,,,0.00,Wunderground v.1.15,2013-12-05 12:15:00,
2013-12-05 06:20:00,28.8,24.3,29.63,SW,232,9.0,9.0,83,0.00,,,0.00,Wunderground v.1.15,2013-12-05 12:20:00,
2013-12-05 06:25:00,28.7,24.2,29.64,WSW,242,8.0,9.0,83,0.00,,,0.00,Wunderground v.1.15,2013-12-05 12:25:00,
2013-12-05 06:30:00,28.6,24.1,29.65,WSW,244,8.0,8.0,83,0.00,,,0.00,Wunderground v.1.15,2013-12-05 12:30:00,
2013-12-05 06:35:00,28.3,23.5,29.65,WSW,238,10.0,10.0,82,0.00,,,0.00,Wunderground v.1.15,2013-12-05 12:35:00,
2013-12-05 06:40:00,28.3,23.8,29.66,West,259,10.0,14.0,83,0.00,,,0.00,Wunderground v.1.15,2013-12-05 12:40:00,
2013-12-05 06:45:00,27.9,23.1,29.65,West,271,10.0,14.0,82,0.00,,,0.00,Wunderground v.1.15,2013-12-05 12:45:00,
2013-12-05 06:55:00,27.4,22.6,29.66,NW,308,10.0,11.0,82,0.00,,,0.00,Wunderground v.1.15,2013-12-05 12:55:00,
2013-12-05 07:00:00,27.1,22.3,29.67,SW,217,10.0,13.0,82,0.00,,,0.00,Wunderground v.1.15,2013-12-05 13:00:00,
2013-12-05 07:05:00,26.7,21.7,29.67,WSW,240,12.0,19.0,81,0.00,,,0.00,Wunderground v.1.15,2013-12-05 13:05:00,
2013-12-05 07:10:00,26.4,21.4,29.67,WSW,249,12.0,12.0,81,0.00,,,0.00,Wunderground v.1.15,2013-12-05 13:10:00,
2013-12-05 07:15:00,26.0,20.7,29.68,WSW,238,10.0,12.0,80,0.00,,,0.00,Wunderground v.1.15,2013-12-05 13:15:00,
2013-12-05 07:20:00,25.8,20.5,29.68,WNW,290,10.0,11.0,80,0.00,,,0.00,Wunderground v.1.15,2013-12-05 13:20:00,
2013-12-05 07:30:00,25.1,19.5,29.69,WNW,286,12.0,18.0,79,0.00,,,0.00,Wunderground v.1.15,2013-12-05 13:30:00,
2013-12-05 07:35:00,24.8,19.2,29.69,WNW,286,13.0,18.0,79,0.00,,,0.00,Wunderground v.1.15,2013-12-05 13:35:00,
2013-12-05 07:40:00,24.7,19.1,29.69,WNW,283,12.0,12.0,79,0.00,,,0.00,Wunderground v.1.15,2013-12-05 13:40:00,
2013-12-05 07:45:00,24.5,18.9,29.70,West,271,11.0,15.0,79,0.00,,,0.00,Wunderground v.1.15,2013-12-05 13:45:00,
2013-12-05 07:50:00,24.6,19.0,29.71,WSW,240,10.0,12.0,79,0.00,,,0.00,Wunderground v.1.15,2013-12-05 13:50:00,
2013-12-05 08:00:00,23.9,18.0,29.71,WSW,248,11.0,11.0,78,0.00,,,0.00,Wunderground v.1.15,2013-12-05 14:00:00,
2013-12-05 08:05:00,23.7,17.5,29.71,WSW,243,11.0,17.0,77,0.00,,,0.00,Wunderground v.1.15,2013-12-05 14:05:00,
2013-12-05 08:15:00,22.9,16.8,29.73,West,275,13.0,17.0,77,0.00,,,0.00,Wunderground v.1.15,2013-12-05 14:15:00,
2013-12-05 08:20:00,22.8,16.4,29.73,West,279,13.0,18.0,76,0.00,,,0.00,Wunderground v.1.15,2013-12-05 14:20:00,
2013-12-05 08:25:00,22.6,16.2,29.73,WSW,245,14.0,18.0,76,0.00,,,0.00,Wunderground v.1.15,2013-12-05 14:25:00,
2013-12-05 08:30:00,22.6,15.9,29.74,West,272,15.0,15.0,75,0.00,,,0.00,Wunderground v.1.15,2013-12-05 14:30:00,
2013-12-05 08:35:00,22.3,15.0,29.74,WSW,251,14.0,23.0,73,0.00,,,0.00,Wunderground v.1.15,2013-12-05 14:35:00,
2013-12-05 08:40:00,22.3,15.3,29.73,WSW,246,13.0,13.0,74,0.00,,,0.00,Wunderground v.1.15,2013-12-05 14:40:00,
2013-12-05 08:45:00,22.1,14.8,29.74,WSW,239,12.0,13.0,73,0.00,,,0.00,Wunderground v.1.15,2013-12-05 14:45:00,
2013-12-05 08:50:00,21.8,14.2,29.75,NW,304,14.0,17.0,72,0.00,,,0.00,Wunderground v.1.15,2013-12-05 14:50:00,
2013-12-05 08:55:00,21.7,14.1,29.75,WSW,254,14.0,17.0,72,0.00,,,0.00,Wunderground v.1.15,2013-12-05 14:55:00,
2013-12-05 09:00:00,21.6,14.0,29.75,WNW,284,12.0,18.0,72,0.00,,,0.00,Wunderground v.1.15,2013-12-05 15:00:00,
2013-12-05 09:05:00,21.3,13.7,29.76,West,271,13.0,18.0,72,0.00,,,0.00,Wunderground v.1.15,2013-12-05 15:05:00,
2013-12-05 09:10:00,21.4,13.8,29.76,WSW,241,13.0,13.0,72,0.00,,,0.00,Wunderground v.1.15,2013-12-05 15:10:00,
2013-12-05 09:15:00,21.3,13.7,29.77,West,270,11.0,15.0,72,0.00,,,0.00,Wunderground v.1.15,2013-12-05 15:15:00,
2013-12-05 09:20:00,21.2,13.6,29.77,WSW,258,12.0,12.0,72,0.00,,,0.00,Wunderground v.1.15,2013-12-05 15:20:00,
2013-12-05 09:25:00,21.1,13.2,29.77,West,273,14.0,14.0,71,0.00,,,0.00,Wunderground v.1.15,2013-12-05 15:25:00,
2013-12-05 09:30:00,21.1,13.5,29.78,WNW,302,14.0,28.0,72,0.00,,,0.00,Wunderground v.1.15,2013-12-05 15:30:00,
2013-12-05 09:35:00,20.7,12.8,29.78,WNW,282,13.0,28.0,71,0.00,,,0.00,Wunderground v.1.15,2013-12-05 15:35:00,
2013-12-05 09:40:00,20.7,12.8,29.79,West,276,14.0,14.0,71,0.00,,,0.00,Wunderground v.1.15,2013-12-05 15:40:00,
2013-12-05 09:45:00,20.4,12.2,29.79,West,273,14.0,14.0,70,0.00,,,0.00,Wunderground v.1.15,2013-12-05 15:45:00,
2013-12-05 09:50:00,20.3,12.1,29.79,West,275,14.0,15.0,70,0.00,,,0.00,Wunderground v.1.15,2013-12-05 15:50:00,
2013-12-05 09:55:00,20.5,12.3,29.79,WNW,296,13.0,15.0,70,0.00,,,0.00,Wunderground v.1.15,2013-12-05 15:55:00,
2013-12-05 10:00:00,20.6,12.4,29.79,West,276,13.0,13.0,70,0.00,,,0.00,Wunderground v.1.15,2013-12-05 16:00:00,
2013-12-05 10:05:00,20.9,12.6,29.80,West,266,12.0,13.0,70,0.00,,,0.00,Wunderground v.1.15,2013-12-05 16:05:00,
2013-12-05 10:10:00,21.1,12.8,29.80,WSW,244,10.0,10.0,70,0.00,,,0.00,Wunderground v.1.15,2013-12-05 16:10:00,
2013-12-05 10:15:00,21.1,12.5,29.81,West,280,10.0,13.0,69,0.00,,,0.00,Wunderground v.1.15,2013-12-05 16:15:00,
2013-12-05 10:25:00,20.7,12.1,29.81,WNW,285,12.0,22.0,69,0.00,,,0.00,Wunderground v.1.15,2013-12-05 16:25:00,
2013-12-05 10:35:00,21.1,12.2,29.82,West,263,11.0,14.0,68,0.00,,,0.00,Wunderground v.1.15,2013-12-05 16:35:00,
2013-12-05 10:40:00,21.1,11.8,29.82,West,279,12.0,16.0,67,0.00,,,0.00,Wunderground v.1.15,2013-12-05 16:40:00,
2013-12-05 10:45:00,21.0,11.8,29.82,WSW,256,13.0,16.0,67,0.00,,,0.00,Wunderground v.1.15,2013-12-05 16:45:00,
2013-12-05 11:20:00,21.4,12.1,29.83,West,272,10.0,11.0,67,0.00,,,0.00,Wunderground v.1.15,2013-12-05 17:20:00,
2013-12-05 11:25:00,21.2,11.9,29.83,West,269,11.0,14.0,67,0.00,,,0.00,Wunderground v.1.15,2013-12-05 17:25:00,
2013-12-05 11:30:00,21.4,12.1,29.83,WSW,249,11.0,11.0,67,0.00,,,0.00,Wunderground v.1.15,2013-12-05 17:30:00,
2013-12-05 11:34:00,21.8,12.5,29.83,WNW,286,9.0,11.0,67,0.00,,,0.00,Wunderground v.1.15,2013-12-05 17:34:00,
2013-12-05 11:40:00,21.4,11.8,29.84,WNW,296,10.0,14.0,66,0.00,,,0.00,Wunderground v.1.15,2013-12-05 17:40:00,
2013-12-05 11:45:00,21.7,12.4,29.84,WSW,250,10.0,16.0,67,0.00,,,0.00,Wunderground v.1.15,2013-12-05 17:45:00,
2013-12-05 11:55:00,21.6,12.3,29.84,West,277,11.0,11.0,67,0.00,,,0.00,Wunderground v.1.15,2013-12-05 17:55:00,
2013-12-05 12:00:00,21.5,11.9,29.84,West,264,12.0,12.0,66,0.00,,,0.00,Wunderground v.1.15,2013-12-05 18:00:00,
2013-12-05 12:25:00,21.2,10.9,29.85,SW,224,12.0,16.0,64,0.00,,,0.00,Wunderground v.1.15,2013-12-05 18:25:00,
2013-12-05 12:30:00,21.3,11.4,29.85,WNW,299,13.0,13.0,65,0.00,,,0.00,Wunderground v.1.15,2013-12-05 18:30:00,
2013-12-05 12:35:00,21.3,11.0,29.85,WSW,256,12.0,13.0,64,0.00,,,0.00,Wunderground v.1.15,2013-12-05 18:35:00,
2013-12-05 12:40:00,21.5,11.2,29.85,West,277,10.0,10.0,64,0.00,,,0.00,Wunderground v.1.15,2013-12-05 18:40:00,
2013-12-05 12:50:00,21.4,11.1,29.86,West,265,10.0,13.0,64,0.00,,,0.00,Wunderground v.1.15,2013-12-05 18:50:00,
2013-12-05 13:00:00,20.8,10.2,29.86,West,263,11.0,15.0,63,0.00,,,0.00,Wunderground v.1.15,2013-12-05 19:00:00,
2013-12-05 13:10:00,20.9,9.9,29.87,SW,225,11.0,12.0,62,0.00,,,0.00,Wunderground v.1.15,2013-12-05 19:10:00,
2013-12-05 13:15:00,21.0,10.0,29.87,SW,229,11.0,12.0,62,0.00,,,0.00,Wunderground v.1.15,2013-12-05 19:15:00,
2013-12-05 13:20:00,20.9,9.9,29.88,West,279,11.0,12.0,62,0.00,,,0.00,Wunderground v.1.15,2013-12-05 19:20:00,
2013-12-05 13:25:00,20.9,10.3,29.88,West,269,11.0,12.0,63,0.00,,,0.00,Wunderground v.1.15,2013-12-05 19:25:00,
2013-12-05 13:35:00,20.9,10.3,29.89,WSW,251,9.0,11.0,63,0.00,,,0.00,Wunderground v.1.15,2013-12-05 19:35:00,
2013-12-05 13:40:00,20.6,9.3,29.89,SSW,208,10.0,10.0,61,0.00,,,0.00,Wunderground v.1.15,2013-12-05 19:40:00,
2013-12-05 13:45:00,20.8,9.8,29.90,West,273,11.0,11.0,62,0.00,,,0.00,Wunderground v.1.15,2013-12-05 19:45:00,
2013-12-05 13:50:00,21.1,10.1,29.90,SW,221,9.0,13.0,62,0.00,,,0.00,Wunderground v.1.15,2013-12-05 19:50:00,
2013-12-05 13:55:00,21.0,10.0,29.90,WSW,244,9.0,13.0,62,0.00,,,0.00,Wunderground v.1.15,2013-12-05 19:55:00,
2013-12-05 14:00:00,20.9,9.9,29.90,West,273,10.0,13.0,62,0.00,,,0.00,Wunderground v.1.15,2013-12-05 20:00:00,
2013-12-05 14:10:00,20.6,8.9,29.91,WSW,245,11.0,11.0,60,0.00,,,0.00,Wunderground v.1.15,2013-12-05 20:10:00,
2013-12-05 14:20:00,20.5,9.2,29.92,West,271,11.0,15.0,61,0.00,,,0.00,Wunderground v.1.15,2013-12-05 20:20:00,
2013-12-05 14:25:00,20.3,9.0,29.92,West,263,11.0,17.0,61,0.00,,,0.00,Wunderground v.1.15,2013-12-05 20:25:00,
2013-12-05 14:35:00,20.0,8.7,29.93,WNW,292,12.0,14.0,61,0.00,,,0.00,Wunderground v.1.15,2013-12-05 20:35:00,
2013-12-05 14:40:00,20.2,8.9,29.93,WSW,249,10.0,12.0,61,0.00,,,0.00,Wunderground v.1.15,2013-12-05 20:40:00,
2013-12-05 14:55:00,19.8,8.1,29.94,West,267,11.0,13.0,60,0.00,,,0.00,Wunderground v.1.15,2013-12-05 20:55:00,
2013-12-05 15:00:00,19.7,8.4,29.94,West,269,11.0,11.0,61,0.00,,,0.00,Wunderground v.1.15,2013-12-05 21:00:00,
2013-12-05 15:15:00,19.2,7.9,29.95,WNW,293,9.0,10.0,61,0.00,,,0.00,Wunderground v.1.15,2013-12-05 21:15:00,
2013-12-05 15:20:00,19.1,7.8,29.95,WNW,283,9.0,9.0,61,0.00,,,0.00,Wunderground v.1.15,2013-12-05 21:20:00,
2013-12-05 15:25:00,19.1,8.2,29.95,West,278,8.0,9.0,62,0.00,,,0.00,Wunderground v.1.15,2013-12-05 21:25:00,
2013-12-05 15:35:00,18.8,8.3,29.96,West,265,9.0,15.0,63,0.00,,,0.00,Wunderground v.1.15,2013-12-05 21:35:00,
2013-12-05 15:40:00,18.7,8.2,29.96,West,269,8.0,8.0,63,0.00,,,0.00,Wunderground v.1.15,2013-12-05 21:40:00,
2013-12-05 15:45:00,18.6,8.1,29.96,WSW,251,8.0,9.0,63,0.00,,,0.00,Wunderground v.1.15,2013-12-05 21:45:00,
2013-12-05 15:50:00,18.4,7.9,29.96,WSW,250,8.0,11.0,63,0.00,,,0.00,Wunderground v.1.15,2013-12-05 21:50:00,
2013-12-05 15:55:00,18.2,7.7,29.97,WSW,257,9.0,11.0,63,0.00,,,0.00,Wunderground v.1.15,2013-12-05 21:55:00,
2013-12-05 16:00:00,18.2,8.1,29.97,SW,232,9.0,9.0,64,0.00,,,0.00,Wunderground v.1.15,2013-12-05 22:00:00,
2013-12-05 16:10:00,18.1,8.0,29.98,West,273,8.0,8.0,64,0.00,,,0.00,Wunderground v.1.15,2013-12-05 22:10:00,
2013-12-05 16:15:00,18.0,7.9,29.98,West,267,7.0,8.0,64,0.00,,,0.00,Wunderground v.1.15,2013-12-05 22:15:00,
2013-12-05 16:20:00,17.9,7.8,29.98,WSW,254,7.0,7.0,64,0.00,,,0.00,Wunderground v.1.15,2013-12-05 22:20:00,
2013-12-05 16:30:00,17.7,7.6,29.98,West,270,8.0,8.0,64,0.00,,,0.00,Wunderground v.1.15,2013-12-05 22:30:00,
2013-12-05 16:40:00,17.4,7.3,29.99,West,275,9.0,9.0,64,0.00,,,0.00,Wunderground v.1.15,2013-12-05 22:40:00,
2013-12-05 16:50:00,17.2,7.1,29.99,WNW,286,8.0,8.0,64,0.00,,,0.00,Wunderground v.1.15,2013-12-05 22:50:00,
2013-12-05 17:00:00,17.0,6.9,30.00,West,274,7.0,9.0,64,0.00,,,0.00,Wunderground v.1.15,2013-12-05 23:00:00,
2013-12-05 17:10:00,16.9,7.2,30.01,NW,309,8.0,8.0,65,0.00,,,0.00,Wunderground v.1.15,2013-12-05 23:10:00,
2013-12-05 17:15:00,16.8,7.1,30.01,West,261,7.0,8.0,65,0.00,,,0.00,Wunderground v.1.15,2013-12-05 23:15:00,
2013-12-05 17:25:00,16.6,7.2,30.02,WNW,289,7.0,9.0,66,0.00,,,0.00,Wunderground v.1.15,2013-12-05 23:25:00,
2013-12-05 17:35:00,16.4,7.0,30.02,West,273,7.0,8.0,66,0.00,,,0.00,Wunderground v.1.15,2013-12-05 23:35:00,
2013-12-05 17:45:00,16.2,7.2,30.03,WSW,248,5.0,10.0,67,0.00,,,0.00,Wunderground v.1.15,2013-12-05 23:45:00,
2013-12-05 17:55:00,16.0,7.0,30.04,West,277,7.0,7.0,67,0.00,,,0.00,Wunderground v.1.15,2013-12-05 23:55:00,
2013-12-05 18:00:00,15.9,6.9,30.04,West,267,7.0,9.0,67,0.00,,,0.00,Wunderground v.1.15,2013-12-06 00:00:00,
2013-12-05 18:10:00,15.7,6.7,30.05,WSW,255,8.0,8.0,67,0.00,,,0.00,Wunderground v.1.15,2013-12-06 00:10:00,
2013-12-05 18:15:00,15.6,6.6,30.06,WSW,242,7.0,8.0,67,0.00,,,0.00,Wunderground v.1.15,2013-12-06 00:15:00,
2013-12-05 18:25:00,15.5,6.5,30.07,WSW,258,8.0,8.0,67,0.00,,,0.00,Wunderground v.1.15,2013-12-06 00:25:00,
2013-12-05 18:30:00,15.5,6.8,30.07,West,265,7.0,10.0,68,0.00,,,0.00,Wunderground v.1.15,2013-12-06 00:30:00,
2013-12-05 18:40:00,15.3,6.3,30.08,West,264,9.0,9.0,67,0.00,,,0.00,Wunderground v.1.15,2013-12-06 00:40:00,
2013-12-05 18:45:00,15.3,6.3,30.09,WSW,240,8.0,9.0,67,0.00,,,0.00,Wunderground v.1.15,2013-12-06 00:45:00,
2013-12-05 18:50:00,15.2,6.2,30.10,West,265,8.0,8.0,67,0.00,,,0.00,Wunderground v.1.15,2013-12-06 00:50:00,
2013-12-05 18:55:00,15.1,6.1,30.10,West,275,8.0,12.0,67,0.00,,,0.00,Wunderground v.1.15,2013-12-06 00:55:00,
2013-12-05 19:00:00,15.0,6.0,30.11,WSW,240,8.0,9.0,67,0.00,,,0.00,Wunderground v.1.15,2013-12-06 01:00:00,
2013-12-05 19:10:00,15.0,6.3,30.11,West,270,6.0,7.0,68,0.00,,,0.00,Wunderground v.1.15,2013-12-06 01:10:00,
2013-12-05 19:20:00,14.8,6.1,30.12,West,265,7.0,7.0,68,0.00,,,0.00,Wunderground v.1.15,2013-12-06 01:20:00,
2013-12-05 19:25:00,14.6,6.0,30.13,WSW,256,6.0,7.0,68,0.00,,,0.00,Wunderground v.1.15,2013-12-06 01:25:00,
2013-12-05 19:35:00,14.3,5.7,30.13,West,276,10.0,16.0,68,0.00,,,0.00,Wunderground v.1.15,2013-12-06 01:35:00,
2013-12-05 19:40:00,14.1,5.5,30.13,WSW,253,10.0,10.0,68,0.00,,,0.00,Wunderground v.1.15,2013-12-06 01:40:00,
2013-12-05 19:50:00,14.0,5.7,30.14,West,261,9.0,9.0,69,0.00,,,0.00,Wunderground v.1.15,2013-12-06 01:50:00,
2013-12-05 20:00:00,13.8,5.5,30.14,WSW,254,9.0,9.0,69,0.00,,,0.00,Wunderground v.1.15,2013-12-06 02:00:00,
2013-12-05 20:10:00,13.6,5.6,30.15,West,279,8.0,11.0,70,0.00,,,0.00,Wunderground v.1.15,2013-12-06 02:10:00,
2013-12-05 20:20:00,13.4,5.4,30.15,West,269,10.0,10.0,70,0.00,,,0.00,Wunderground v.1.15,2013-12-06 02:20:00,
2013-12-05 20:30:00,13.1,5.1,30.15,SW,230,10.0,10.0,70,0.00,,,0.00,Wunderground v.1.15,2013-12-06 02:30:00,
2013-12-05 20:40:00,12.9,5.0,30.15,WSW,252,9.0,10.0,70,0.00,,,0.00,Wunderground v.1.15,2013-12-06 02:40:00,
2013-12-05 20:45:00,12.9,5.3,30.15,WNW,286,8.0,10.0,71,0.00,,,0.00,Wunderground v.1.15,2013-12-06 02:45:00,
2013-12-05 20:55:00,12.7,5.1,30.16,West,259,8.0,12.0,71,0.00,,,0.00,Wunderground v.1.15,2013-12-06 02:55:00,
2013-12-05 21:00:00,12.6,5.0,30.16,WSW,248,8.0,8.0,71,0.00,,,0.00,Wunderground v.1.15,2013-12-06 03:00:00,
2013-12-05 21:10:00,12.5,4.9,30.17,WSW,253,8.0,8.0,71,0.00,,,0.00,Wunderground v.1.15,2013-12-06 03:10:00,
2013-12-05 21:15:00,12.5,4.9,30.17,West,263,8.0,8.0,71,0.00,,,0.00,Wunderground v.1.15,2013-12-06 03:15:00,
2013-12-05 21:25:00,12.3,5.0,30.17,West,271,7.0,8.0,72,0.00,,,0.00,Wunderground v.1.15,2013-12-06 03:25:00,
2013-12-05 21:35:00,12.2,4.9,30.17,West,280,7.0,7.0,72,0.00,,,0.00,Wunderground v.1.15,2013-12-06 03:35:00,
2013-12-05 21:40:00,12.2,4.9,30.17,WNW,303,8.0,9.0,72,0.00,,,0.00,Wunderground v.1.15,2013-12-06 03:40:00,
2013-12-05 21:50:00,12.0,4.7,30.17,West,273,9.0,10.0,72,0.00,,,0.00,Wunderground v.1.15,2013-12-06 03:50:00,
2013-12-05 21:55:00,12.0,4.7,30.17,WNW,293,8.0,10.0,72,0.00,,,0.00,Wunderground v.1.15,2013-12-06 03:55:00,
2013-12-05 22:00:00,11.9,4.9,30.17,West,267,7.0,7.0,73,0.00,,,0.00,Wunderground v.1.15,2013-12-06 04:00:00,
2013-12-05 22:10:00,11.8,4.8,30.18,West,267,8.0,10.0,73,0.00,,,0.00,Wunderground v.1.15,2013-12-06 04:10:00,
2013-12-05 22:15:00,11.8,4.8,30.18,WNW,288,7.0,10.0,73,0.00,,,0.00,Wunderground v.1.15,2013-12-06 04:15:00,
2013-12-05 22:25:00,11.6,4.6,30.18,WSW,257,6.0,9.0,73,0.00,,,0.00,Wunderground v.1.15,2013-12-06 04:25:00,
2013-12-05 22:30:00,11.6,4.6,30.18,WNW,295,6.0,8.0,73,0.00,,,0.00,Wunderground v.1.15,2013-12-06 04:30:00,
2013-12-05 22:35:00,11.6,4.6,30.18,SW,235,6.0,8.0,73,0.00,,,0.00,Wunderground v.1.15,2013-12-06 04:35:00,
2013-12-05 22:40:00,11.5,4.5,30.18,West,274,7.0,7.0,73,0.00,,,0.00,Wunderground v.1.15,2013-12-06 04:40:00,
2013-12-05 22:50:00,11.4,4.4,30.18,West,281,6.0,6.0,73,0.00,,,0.00,Wunderground v.1.15,2013-12-06 04:50:00,
2013-12-05 23:00:00,11.3,4.6,30.19,West,277,6.0,6.0,74,0.00,,,0.00,Wunderground v.1.15,2013-12-06 05:00:00,
2013-12-05 23:05:00,11.3,4.6,30.18,West,275,7.0,7.0,74,0.00,,,0.00,Wunderground v.1.15,2013-12-06 05:05:00,
2013-12-05 23:10:00,11.2,4.5,30.18,West,267,7.0,7.0,74,0.00,,,0.00,Wunderground v.1.15,2013-12-06 05:10:00,
2013-12-05 23:15:00,11.1,4.4,30.19,West,270,5.0,7.0,74,0.00,,,0.00,Wunderground v.1.15,2013-12-06 05:15:00,
2013-12-05 23:25:00,11.0,4.3,30.20,WSW,255,5.0,7.0,74,0.00,,,0.00,Wunderground v.1.15,2013-12-06 05:25:00,
2013-12-05 23:30:00,10.9,4.2,30.20,WSW,244,5.0,5.0,74,0.00,,,0.00,Wunderground v.1.15,2013-12-06 05:30:00,
2013-12-05 23:35:00,10.9,4.2,30.21,West,261,5.0,8.0,74,0.00,,,0.00,Wunderground v.1.15,2013-12-06 05:35:00,
2013-12-05 23:40:00,10.8,4.1,30.21,West,278,5.0,9.0,74,0.00,,,0.00,Wunderground v.1.15,2013-12-06 05:40:00,
2013-12-05 23:50:00,10.7,4.0,30.22,West,278,5.0,5.0,74,0.00,,,0.00,Wunderground v.1.15,2013-12-06 05:50:00,
2013-12-05 23:55:00,10.7,4.0,30.22,WSW,239,5.0,6.0,74,0.00,,,0.00,Wunderground v.1.15,2013-12-06 05:55:00,